F/V Mailys Charlie — FMIW — position and weather

sailwx.info

Track history (hours):
 
Tides and Currents Weather Stations Pressure Air Temp Water Temp Dewpoint Dewpoint Depression Visibility Wind Speed Wind Dir Waves Ship Positions

F/V Mailys Charlie

Last reported at 2016-Dec-03 09:24 UTC. Time now 2016-Dec-03 09:39 UTC.
Position N 46°60' W 002°55'.

Length 19 m.

Type: Fishing. MMSI: 228240800.

Date/timePositionNaut miles runAvg speedWind from/ knotsBaromVisibWave heightAir tempDewpointWater temp
2016-Dec-03 09:24N 46°60' W 002°55'2 2.3
2016-Dec-03 08:33N 47°01' W 002°57'2 2.4
2016-Dec-03 07:33N 47°03' W 003°00'3 2.9
2016-Dec-03 06:33N 47°05' W 003°03'7 7.2
2016-Dec-03 05:32N 47°11' W 002°56'8 8.5
2016-Dec-03 04:34N 47°16' W 002°46'9 8.9
2016-Dec-03 03:33N 47°20' W 002°34'2 2.2
2016-Dec-03 02:33N 47°21' W 002°31'0 0.0
2016-Dec-03 01:32N 47°21' W 002°31'0 0.0
2016-Dec-03 00:33N 47°21' W 002°31'0 0.0
2016-Dec-02 23:33N 47°21' W 002°31'0 0.0
2016-Dec-02 22:31N 47°21' W 002°31'0 0.0
2016-Dec-02 21:32N 47°21' W 002°31'0 0.0
2016-Dec-02 20:33N 47°21' W 002°31'0 0.0
2016-Dec-02 19:34N 47°21' W 002°31'0 0.0
2016-Dec-02 18:33N 47°21' W 002°31'0 0.0
2016-Dec-02 17:32N 47°21' W 002°31'0 0.0
2016-Dec-02 16:33N 47°21' W 002°31'0 0.0
2016-Dec-02 15:33N 47°21' W 002°31'0 0.0
2016-Dec-02 13:26N 47°21' W 002°31'0 0.0
2016-Dec-02 12:12N 47°21' W 002°31'0 0.0
2016-Dec-02 11:05N 47°21' W 002°31'0 0.0
2016-Dec-02 10:33N 47°21' W 002°31'0 0.0
2016-Dec-02 09:32N 47°21' W 002°31'0 0.0
2016-Dec-02 08:32N 47°21' W 002°31'0 0.0
2016-Dec-02 07:33N 47°21' W 002°31'0 0.0
2016-Dec-02 06:34N 47°21' W 002°31'0 0.0
2016-Dec-02 05:34N 47°21' W 002°31'0 0.0
2016-Dec-02 04:34N 47°21' W 002°31'0 0.0
2016-Dec-02 03:33N 47°21' W 002°31'0 0.0
2016-Dec-02 02:33N 47°21' W 002°31'0 0.0
2016-Dec-02 01:33N 47°21' W 002°31'0 0.0
2016-Dec-02 00:33N 47°21' W 002°31'0 0.0
2016-Dec-01 23:33N 47°21' W 002°31'0 0.0
2016-Dec-01 22:33N 47°21' W 002°31'0 0.0
2016-Dec-01 21:34N 47°21' W 002°31'0 0.3
2016-Dec-01 20:33N 47°20' W 002°31'9 9.5
2016-Dec-01 19:34N 47°12' W 002°38'9 9.3
2016-Dec-01 18:34N 47°04' W 002°43'7 3.5
2016-Dec-01 16:24N 46°57' W 002°48'4 2.8
2016-Dec-01 15:03N 46°60' W 002°53'2 3.2
2016-Dec-01 14:33N 47°01' W 002°53'3 2.9
2016-Dec-01 13:33N 47°04' W 002°53'2 2.4
2016-Dec-01 12:33N 47°06' W 002°53'1 0.6
2016-Dec-01 11:30N 47°07' W 002°53'2 1.8
2016-Dec-01 10:33N 47°07' W 002°56'2 1.9
2016-Dec-01 09:33N 47°06' W 002°58'2 1.8
2016-Dec-01 08:30N 47°05' W 003°01'2 2.3
2016-Dec-01 07:33N 47°03' W 002°60'3 2.6
2016-Dec-01 06:33N 47°01' W 002°59'2 1.8
2016-Dec-01 05:33N 46°60' W 002°56'3 2.7
2016-Dec-01 04:33N 46°59' W 002°53'3 2.6
2016-Dec-01 03:30N 46°59' W 002°49'3 0.4
2016-Nov-30 19:12N 46°59' W 002°53'2 2.2
2016-Nov-30 18:18N 46°60' W 002°56'0 0.5
2016-Nov-30 17:33N 46°60' W 002°57'2 2.1
2016-Nov-30 16:33N 46°60' W 002°54'3 2.9
2016-Nov-30 15:33N 46°59' W 002°49'2 0.4
2016-Nov-30 11:24N 46°58' W 002°51'2 2.2
2016-Nov-30 10:33N 46°60' W 002°53'2 1.5
2016-Nov-30 09:30N 46°59' W 002°51'4 3.2
2016-Nov-30 08:24N 46°59' W 002°46'2 0.5
2016-Nov-30 04:30N 46°59' W 002°49'3 2.8
2016-Nov-30 03:33N 46°60' W 002°45'7 6.6
2016-Nov-30 02:33N 47°06' W 002°41'11 8.2
2016-Nov-30 01:15N 47°16' W 002°36'5 7.5
2016-Nov-30 00:33N 47°20' W 002°32'1 0.8
2016-Nov-29 23:33N 47°21' W 002°31'2 2.3
2016-Nov-29 22:30N 47°19' W 002°34'5 5.0
2016-Nov-29 21:33N 47°15' W 002°37'4 4.3
2016-Nov-29 20:33N 47°11' W 002°39'6 5.6
2016-Nov-29 19:33N 47°06' W 002°43'7 6.6
2016-Nov-29 18:32N 47°00' W 002°47'2 0.5
2016-Nov-29 13:18N 46°59' W 002°50'3 1.9
2016-Nov-29 11:33N 46°60' W 002°55'2 2.2
2016-Nov-29 10:33N 47°01' W 002°57'2 2.1
2016-Nov-29 09:33N 47°03' W 002°59'2 2.2
2016-Nov-29 08:33N 47°05' W 003°00'3 2.7
2016-Nov-29 07:33N 47°08' W 002°59'2 2.2
2016-Nov-29 06:33N 47°07' W 002°56'1 1.3
2016-Nov-29 05:33N 47°07' W 002°57'2 1.6
2016-Nov-29 04:33N 47°06' W 002°59'2 2.3
2016-Nov-29 03:33N 47°04' W 002°57'2 2.3
2016-Nov-29 02:33N 47°02' W 002°55'2 2.4
2016-Nov-29 01:33N 46°60' W 002°53'2 2.5
2016-Nov-29 00:33N 46°58' W 002°51'1 1.1
2016-Nov-28 23:33N 46°59' W 002°52'2 2.1
2016-Nov-28 22:27N 46°60' W 002°55'2 2.1
2016-Nov-28 21:33N 47°01' W 002°57'2 1.9
2016-Nov-28 20:33N 47°02' W 002°59'2 2.0
2016-Nov-28 19:33N 47°04' W 003°01'3 2.9
2016-Nov-28 18:30N 47°07' W 002°58'3 2.7
2016-Nov-28 17:33N 47°08' W 002°55'1 1.3
2016-Nov-28 16:33N 47°07' W 002°56'2 1.8
2016-Nov-28 15:33N 47°06' W 002°59'2 1.8
2016-Nov-28 14:28N 47°04' W 002°59'2 2.5
2016-Nov-28 13:33N 47°02' W 002°58'3 2.6
2016-Nov-28 12:33N 47°00' W 002°55'2 2.2
2016-Nov-28 11:33N 46°58' W 002°54'4 2.0
2016-Nov-28 09:27N 46°59' W 002°60'2 2.5
2016-Nov-28 08:33N 47°01' W 002°60'3 3.1
2016-Nov-28 07:33N 47°04' W 002°57'3 3.2
2016-Nov-28 06:33N 47°06' W 002°54'3 3.3
2016-Nov-28 05:33N 47°08' W 002°50'8 8.3
2016-Nov-28 04:33N 47°13' W 002°40'9 9.3
2016-Nov-28 03:34N 47°20' W 002°32'1 0.8
2016-Nov-28 02:33N 47°21' W 002°31'0 0.0
2016-Nov-28 01:33N 47°21' W 002°31'0 0.0
2016-Nov-28 00:33N 47°21' W 002°31'0 0.0
2016-Nov-27 23:33N 47°21' W 002°31'0 0.0
2016-Nov-27 22:33N 47°21' W 002°31'0 0.0
2016-Nov-27 21:33N 47°21' W 002°31'0 0.0
2016-Nov-27 20:33N 47°21' W 002°31'0 0.0
2016-Nov-27 19:33N 47°21' W 002°31'0 0.0
2016-Nov-27 18:33N 47°21' W 002°31'0 0.0
2016-Nov-27 17:33N 47°21' W 002°31'0 0.0
2016-Nov-27 16:33N 47°21' W 002°31'0 0.0
2016-Nov-27 15:33N 47°21' W 002°31'0 0.0
2016-Nov-27 14:33N 47°21' W 002°31'0 0.0
2016-Nov-27 13:33N 47°21' W 002°31'0 0.0
2016-Nov-27 12:33N 47°21' W 002°31'0 0.0
2016-Nov-27 11:33N 47°21' W 002°31'0 0.0
2016-Nov-27 10:31N 47°21' W 002°31'0 0.0
2016-Nov-27 09:33N 47°21' W 002°31'0 0.0
2016-Nov-27 08:33N 47°21' W 002°31'0 0.0
2016-Nov-27 07:34N 47°21' W 002°31'0 0.0
2016-Nov-27 06:33N 47°21' W 002°31'0 0.0
2016-Nov-27 05:33N 47°21' W 002°31'0 0.0
2016-Nov-27 04:33N 47°21' W 002°31'0 0.0
2016-Nov-27 03:33N 47°21' W 002°31'0 0.0
2016-Nov-27 02:33N 47°21' W 002°31'0 0.0
2016-Nov-27 01:33N 47°21' W 002°31'0 0.0
2016-Nov-27 00:34N 47°21' W 002°31'0 0.0
2016-Nov-26 23:33N 47°21' W 002°31'0 0.0
2016-Nov-26 22:33N 47°21' W 002°31'0 0.0
2016-Nov-26 21:33N 47°21' W 002°31'0 0.0
2016-Nov-26 20:33N 47°21' W 002°31'0 0.0
2016-Nov-26 19:33N 47°21' W 002°31'0 0.0
2016-Nov-26 18:33N 47°21' W 002°31'0 0.0
2016-Nov-26 17:33N 47°21' W 002°31'0 0.0
2016-Nov-26 16:33N 47°21' W 002°31'0 0.0
2016-Nov-26 15:33N 47°21' W 002°31'0 0.0
2016-Nov-26 14:33N 47°21' W 002°31'0 0.0
2016-Nov-26 13:33N 47°21' W 002°31'0 0.0
2016-Nov-26 12:33N 47°21' W 002°31'0 0.0
2016-Nov-26 11:33N 47°21' W 002°31'0 0.0
2016-Nov-26 10:33N 47°21' W 002°31'0 0.0
2016-Nov-26 09:33N 47°21' W 002°31'9 8.6
2016-Nov-26 08:33N 47°14' W 002°39'10 9.6
2016-Nov-26 07:33N 47°07' W 002°48'9 9.1
2016-Nov-26 06:33N 46°60' W 002°57'2 2.1
2016-Nov-26 05:33N 46°60' W 002°54'3 3.1
2016-Nov-26 04:33N 46°59' W 002°49'3 3.1
2016-Nov-26 03:33N 46°59' W 002°45'4 1.3
2016-Nov-26 00:18N 46°58' W 002°51'3 2.7
2016-Nov-25 23:18N 46°58' W 002°55'2 2.0
2016-Nov-25 22:30N 46°60' W 002°56'2 2.2
2016-Nov-25 21:33N 47°01' W 002°58'2 2.2
2016-Nov-25 20:33N 47°03' W 003°00'2 2.2
2016-Nov-25 19:33N 47°05' W 003°02'2 2.3
2016-Nov-25 18:33N 47°07' W 003°03'8 8.4
2016-Nov-25 17:33N 47°09' W 003°15'9 8.7
2016-Nov-25 16:33N 47°12' W 003°27'82 2.4
2016-Nov-24 06:19N 47°37' W 005°22'2 2.8
2016-Nov-24 05:33N 47°36' W 005°20'  
Track history (hours):
 
Tides and Currents Weather Stations Pressure Air Temp Water Temp Dewpoint Dewpoint Depression Visibility Wind Speed Wind Dir Waves Ship Positions

F/V Mailys Charlie

Last reported at 2016-Dec-03 09:24 UTC. Time now 2016-Dec-03 09:39 UTC.
Position N 46°60' W 002°55'.

Length 19 m.

Type: Fishing. MMSI: 228240800.

Date/timePositionNaut miles runAvg speedWind from/ knotsBaromVisibWave heightAir tempDewpointWater temp
2016-Dec-03 09:24N 46°60' W 002°55'2 2.3
2016-Dec-03 08:33N 47°01' W 002°57'2 2.4
2016-Dec-03 07:33N 47°03' W 003°00'3 2.9
2016-Dec-03 06:33N 47°05' W 003°03'7 7.2
2016-Dec-03 05:32N 47°11' W 002°56'8 8.5
2016-Dec-03 04:34N 47°16' W 002°46'9 8.9
2016-Dec-03 03:33N 47°20' W 002°34'2 2.2
2016-Dec-03 02:33N 47°21' W 002°31'0 0.0
2016-Dec-03 01:32N 47°21' W 002°31'0 0.0
2016-Dec-03 00:33N 47°21' W 002°31'0 0.0
2016-Dec-02 23:33N 47°21' W 002°31'0 0.0
2016-Dec-02 22:31N 47°21' W 002°31'0 0.0
2016-Dec-02 21:32N 47°21' W 002°31'0 0.0
2016-Dec-02 20:33N 47°21' W 002°31'0 0.0
2016-Dec-02 19:34N 47°21' W 002°31'0 0.0
2016-Dec-02 18:33N 47°21' W 002°31'0 0.0
2016-Dec-02 17:32N 47°21' W 002°31'0 0.0
2016-Dec-02 16:33N 47°21' W 002°31'0 0.0
2016-Dec-02 15:33N 47°21' W 002°31'0 0.0
2016-Dec-02 13:26N 47°21' W 002°31'0 0.0
2016-Dec-02 12:12N 47°21' W 002°31'0 0.0
2016-Dec-02 11:05N 47°21' W 002°31'0 0.0
2016-Dec-02 10:33N 47°21' W 002°31'0 0.0
2016-Dec-02 09:32N 47°21' W 002°31'0 0.0
2016-Dec-02 08:32N 47°21' W 002°31'0 0.0
2016-Dec-02 07:33N 47°21' W 002°31'0 0.0
2016-Dec-02 06:34N 47°21' W 002°31'0 0.0
2016-Dec-02 05:34N 47°21' W 002°31'0 0.0
2016-Dec-02 04:34N 47°21' W 002°31'0 0.0
2016-Dec-02 03:33N 47°21' W 002°31'0 0.0
2016-Dec-02 02:33N 47°21' W 002°31'0 0.0
2016-Dec-02 01:33N 47°21' W 002°31'0 0.0
2016-Dec-02 00:33N 47°21' W 002°31'0 0.0
2016-Dec-01 23:33N 47°21' W 002°31'0 0.0
2016-Dec-01 22:33N 47°21' W 002°31'0 0.0
2016-Dec-01 21:34N 47°21' W 002°31'0 0.3
2016-Dec-01 20:33N 47°20' W 002°31'9 9.5
2016-Dec-01 19:34N 47°12' W 002°38'9 9.3
2016-Dec-01 18:34N 47°04' W 002°43'7 3.5
2016-Dec-01 16:24N 46°57' W 002°48'4 2.8
2016-Dec-01 15:03N 46°60' W 002°53'2 3.2
2016-Dec-01 14:33N 47°01' W 002°53'3 2.9
2016-Dec-01 13:33N 47°04' W 002°53'2 2.4
2016-Dec-01 12:33N 47°06' W 002°53'1 0.6
2016-Dec-01 11:30N 47°07' W 002°53'2 1.8
2016-Dec-01 10:33N 47°07' W 002°56'2 1.9
2016-Dec-01 09:33N 47°06' W 002°58'2 1.8
2016-Dec-01 08:30N 47°05' W 003°01'2 2.3
2016-Dec-01 07:33N 47°03' W 002°60'3 2.6
2016-Dec-01 06:33N 47°01' W 002°59'2 1.8
2016-Dec-01 05:33N 46°60' W 002°56'3 2.7
2016-Dec-01 04:33N 46°59' W 002°53'3 2.6
2016-Dec-01 03:30N 46°59' W 002°49'3 0.4
2016-Nov-30 19:12N 46°59' W 002°53'2 2.2
2016-Nov-30 18:18N 46°60' W 002°56'0 0.5
2016-Nov-30 17:33N 46°60' W 002°57'2 2.1
2016-Nov-30 16:33N 46°60' W 002°54'3 2.9
2016-Nov-30 15:33N 46°59' W 002°49'2 0.4
2016-Nov-30 11:24N 46°58' W 002°51'2 2.2
2016-Nov-30 10:33N 46°60' W 002°53'2 1.5
2016-Nov-30 09:30N 46°59' W 002°51'4 3.2
2016-Nov-30 08:24N 46°59' W 002°46'2 0.5
2016-Nov-30 04:30N 46°59' W 002°49'3 2.8
2016-Nov-30 03:33N 46°60' W 002°45'7 6.6
2016-Nov-30 02:33N 47°06' W 002°41'11 8.2
2016-Nov-30 01:15N 47°16' W 002°36'5 7.5
2016-Nov-30 00:33N 47°20' W 002°32'1 0.8
2016-Nov-29 23:33N 47°21' W 002°31'2 2.3
2016-Nov-29 22:30N 47°19' W 002°34'5 5.0
2016-Nov-29 21:33N 47°15' W 002°37'4 4.3
2016-Nov-29 20:33N 47°11' W 002°39'6 5.6
2016-Nov-29 19:33N 47°06' W 002°43'7 6.6
2016-Nov-29 18:32N 47°00' W 002°47'2 0.5
2016-Nov-29 13:18N 46°59' W 002°50'3 1.9
2016-Nov-29 11:33N 46°60' W 002°55'2 2.2
2016-Nov-29 10:33N 47°01' W 002°57'2 2.1
2016-Nov-29 09:33N 47°03' W 002°59'2 2.2
2016-Nov-29 08:33N 47°05' W 003°00'3 2.7
2016-Nov-29 07:33N 47°08' W 002°59'2 2.2
2016-Nov-29 06:33N 47°07' W 002°56'1 1.3
2016-Nov-29 05:33N 47°07' W 002°57'2 1.6
2016-Nov-29 04:33N 47°06' W 002°59'2 2.3
2016-Nov-29 03:33N 47°04' W 002°57'2 2.3
2016-Nov-29 02:33N 47°02' W 002°55'2 2.4
2016-Nov-29 01:33N 46°60' W 002°53'2 2.5
2016-Nov-29 00:33N 46°58' W 002°51'1 1.1
2016-Nov-28 23:33N 46°59' W 002°52'2 2.1
2016-Nov-28 22:27N 46°60' W 002°55'2 2.1
2016-Nov-28 21:33N 47°01' W 002°57'2 1.9
2016-Nov-28 20:33N 47°02' W 002°59'2 2.0
2016-Nov-28 19:33N 47°04' W 003°01'3 2.9
2016-Nov-28 18:30N 47°07' W 002°58'3 2.7
2016-Nov-28 17:33N 47°08' W 002°55'1 1.3
2016-Nov-28 16:33N 47°07' W 002°56'2 1.8
2016-Nov-28 15:33N 47°06' W 002°59'2 1.8
2016-Nov-28 14:28N 47°04' W 002°59'2 2.5
2016-Nov-28 13:33N 47°02' W 002°58'3 2.6
2016-Nov-28 12:33N 47°00' W 002°55'2 2.2
2016-Nov-28 11:33N 46°58' W 002°54'4 2.0
2016-Nov-28 09:27N 46°59' W 002°60'2 2.5
2016-Nov-28 08:33N 47°01' W 002°60'3 3.1
2016-Nov-28 07:33N 47°04' W 002°57'3 3.2
2016-Nov-28 06:33N 47°06' W 002°54'3 3.3
2016-Nov-28 05:33N 47°08' W 002°50'8 8.3
2016-Nov-28 04:33N 47°13' W 002°40'9 9.3
2016-Nov-28 03:34N 47°20' W 002°32'1 0.8
2016-Nov-28 02:33N 47°21' W 002°31'0 0.0
2016-Nov-28 01:33N 47°21' W 002°31'0 0.0
2016-Nov-28 00:33N 47°21' W 002°31'0 0.0
2016-Nov-27 23:33N 47°21' W 002°31'0 0.0
2016-Nov-27 22:33N 47°21' W 002°31'0 0.0
2016-Nov-27 21:33N 47°21' W 002°31'0 0.0
2016-Nov-27 20:33N 47°21' W 002°31'0 0.0
2016-Nov-27 19:33N 47°21' W 002°31'0 0.0
2016-Nov-27 18:33N 47°21' W 002°31'0 0.0
2016-Nov-27 17:33N 47°21' W 002°31'0 0.0
2016-Nov-27 16:33N 47°21' W 002°31'0 0.0
2016-Nov-27 15:33N 47°21' W 002°31'0 0.0
2016-Nov-27 14:33N 47°21' W 002°31'0 0.0
2016-Nov-27 13:33N 47°21' W 002°31'0 0.0
2016-Nov-27 12:33N 47°21' W 002°31'0 0.0
2016-Nov-27 11:33N 47°21' W 002°31'0 0.0
2016-Nov-27 10:31N 47°21' W 002°31'0 0.0
2016-Nov-27 09:33N 47°21' W 002°31'0 0.0
2016-Nov-27 08:33N 47°21' W 002°31'0 0.0
2016-Nov-27 07:34N 47°21' W 002°31'0 0.0
2016-Nov-27 06:33N 47°21' W 002°31'0 0.0
2016-Nov-27 05:33N 47°21' W 002°31'0 0.0
2016-Nov-27 04:33N 47°21' W 002°31'0 0.0
2016-Nov-27 03:33N 47°21' W 002°31'0 0.0
2016-Nov-27 02:33N 47°21' W 002°31'0 0.0
2016-Nov-27 01:33N 47°21' W 002°31'0 0.0
2016-Nov-27 00:34N 47°21' W 002°31'0 0.0
2016-Nov-26 23:33N 47°21' W 002°31'0 0.0
2016-Nov-26 22:33N 47°21' W 002°31'0 0.0
2016-Nov-26 21:33N 47°21' W 002°31'0 0.0
2016-Nov-26 20:33N 47°21' W 002°31'0 0.0
2016-Nov-26 19:33N 47°21' W 002°31'0 0.0
2016-Nov-26 18:33N 47°21' W 002°31'0 0.0
2016-Nov-26 17:33N 47°21' W 002°31'0 0.0
2016-Nov-26 16:33N 47°21' W 002°31'0 0.0
2016-Nov-26 15:33N 47°21' W 002°31'0 0.0
2016-Nov-26 14:33N 47°21' W 002°31'0 0.0
2016-Nov-26 13:33N 47°21' W 002°31'0 0.0
2016-Nov-26 12:33N 47°21' W 002°31'0 0.0
2016-Nov-26 11:33N 47°21' W 002°31'0 0.0
2016-Nov-26 10:33N 47°21' W 002°31'0 0.0
2016-Nov-26 09:33N 47°21' W 002°31'9 8.6
2016-Nov-26 08:33N 47°14' W 002°39'10 9.6
2016-Nov-26 07:33N 47°07' W 002°48'9 9.1
2016-Nov-26 06:33N 46°60' W 002°57'2 2.1
2016-Nov-26 05:33N 46°60' W 002°54'3 3.1
2016-Nov-26 04:33N 46°59' W 002°49'3 3.1
2016-Nov-26 03:33N 46°59' W 002°45'4 1.3
2016-Nov-26 00:18N 46°58' W 002°51'3 2.7
2016-Nov-25 23:18N 46°58' W 002°55'2 2.0
2016-Nov-25 22:30N 46°60' W 002°56'2 2.2
2016-Nov-25 21:33N 47°01' W 002°58'2 2.2
2016-Nov-25 20:33N 47°03' W 003°00'2 2.2
2016-Nov-25 19:33N 47°05' W 003°02'2 2.3
2016-Nov-25 18:33N 47°07' W 003°03'8 8.4
2016-Nov-25 17:33N 47°09' W 003°15'9 8.7
2016-Nov-25 16:33N 47°12' W 003°27'82 2.4
2016-Nov-24 06:19N 47°37' W 005°22'2 2.8
2016-Nov-24 05:33N 47°36' W 005°20'  

Dump ship's entire track history